Portada
METAR-TAF:

METAR-TAF

Aeroports :

Sankt Gallen, Suïssa

latitud: 47-29-06N, longitud: 009-33-43E, altitud: 398 m

Observació

L'informe es va fer fa 36 minuts, a les 10:20 UTC
Vent 11 kt del Oest/Nord-Oest
Temperatura 6°C
Humitat 70%
Pressió 1031 hPa
Visibilitat 10 km o més
Cel ennuvolat a una alçada de 7500 ft

METAR: LSZR 211020Z 29011KT 9999 BKN075 06/01 Q1031 NOSIG RMK E

Hora: 11:56 (10:56 UTC)

Pronòstic

L'informe es va fer fa 2 hores i 31 minuts, a les 08:25 UTC
Pronòstic vàlid del 21 a les 09 UTC al 21 a les 18 UTC
Vent 6 kt del Oest/Nord-Oest
Visibilitat 10 km o més
Núvols disperses a una alçada de 4000 ft
Evolucionant progressivament
l' 21 a les 14 UTC al 21 a les 17 UTC
Visibilitat 10 km o més
sense núvols per sota de 1500 mi sense presència de cumulonimbus.

TAF: LSZR 210825Z 2109/2118 29006KT 9999 SCT040 BECMG 2114/2117 CAVOK

Observacions i pronòstics meteorològics de més de 4000 aeroports (METAR i TAF).

Les estacions disponibles són els punts grocs i vermells al mapa.

Posi el ratolí al punt desitjat per veure el nom de l'estació.

Feu clic per veure les observacions i els pronòstics meteorològics.

Per canviar el mapa: feu clic els botons verds amb una creu de color negre per apropar; al botó verd amb un guió per allunyar la imatge; o en les fletxes verdes per a mapes adjacents.


METAR-TAF: